createdAt,value
2019-02-07T00:02:54.475Z,101100.36
2019-02-07T00:06:59.984Z,101092.31
2019-02-07T00:11:05.815Z,101088.72
2019-02-07T00:15:11.716Z,101085.61
2019-02-07T00:19:17.162Z,101065.25
2019-02-07T00:23:22.574Z,101064.37
2019-02-07T00:27:27.991Z,101052.20
2019-02-07T00:31:33.426Z,101039.36
2019-02-07T00:35:38.869Z,101028.06
2019-02-07T00:39:44.773Z,101026.68
2019-02-07T00:43:50.058Z,101016.91
2019-02-07T00:47:55.605Z,101003.70
2019-02-07T00:52:01.031Z,100992.41
2019-02-07T00:56:06.476Z,100984.12
2019-02-07T01:00:21.227Z,100970.41
2019-02-07T01:04:26.660Z,100960.47
2019-02-07T01:08:32.100Z,100955.30
2019-02-07T01:12:37.636Z,100947.20
2019-02-07T01:16:43.045Z,100937.64
2019-02-07T01:20:48.766Z,100927.03
2019-02-07T01:24:54.211Z,100931.44
2019-02-07T01:28:59.669Z,100920.80
2019-02-07T01:33:05.166Z,100918.38
2019-02-07T01:37:11.060Z,100909.29
2019-02-07T01:41:16.504Z,100908.96
2019-02-07T01:45:22.538Z,100903.52
2019-02-07T01:49:27.986Z,100903.27
2019-02-07T01:53:33.669Z,100888.41
2019-02-07T01:57:39.331Z,100888.51
2019-02-07T02:01:44.892Z,100879.42
2019-02-07T02:05:50.258Z,100874.11
2019-02-07T02:09:55.760Z,100868.34
2019-02-07T02:14:01.574Z,100862.03
2019-02-07T02:18:06.984Z,100847.84
2019-02-07T02:22:12.557Z,100848.48
2019-02-07T02:26:18.029Z,100840.13
2019-02-07T02:30:35.115Z,100825.62
2019-02-07T02:34:40.831Z,100819.43
2019-02-07T02:38:47.348Z,100804.41
2019-02-07T02:42:52.864Z,100802.36
2019-02-07T02:46:58.351Z,100784.03
2019-02-07T02:51:04.402Z,100762.70
2019-02-07T02:55:10.902Z,100757.36
2019-02-07T02:59:16.355Z,100756.09
2019-02-07T03:03:47.758Z,100745.98
2019-02-07T03:08:24.005Z,100749.04
2019-02-07T03:12:47.299Z,100747.81
2019-02-07T03:17:29.895Z,100733.11
2019-02-07T03:21:48.071Z,100725.93
2019-02-07T03:26:21.475Z,100723.88
2019-02-07T03:30:38.777Z,100710.44
2019-02-07T03:34:50.693Z,100699.86
2019-02-07T03:39:14.135Z,100689.47
2019-02-07T03:43:53.883Z,100684.73
2019-02-07T03:48:21.033Z,100680.48
2019-02-07T03:52:33.584Z,100677.76
2019-02-07T03:57:10.052Z,100657.46
2019-02-07T04:01:37.979Z,100662.08
2019-02-07T04:05:52.350Z,100653.57
2019-02-07T04:10:14.263Z,100650.48
2019-02-07T04:14:30.895Z,100638.05
2019-02-07T04:18:56.650Z,100637.41
2019-02-07T04:23:13.070Z,100635.20
2019-02-07T04:27:43.388Z,100618.98
2019-02-07T04:32:20.361Z,100607.22
2019-02-07T04:36:50.518Z,100604.17
2019-02-07T04:41:15.110Z,100594.62
2019-02-07T04:45:32.108Z,100592.25
2019-02-07T04:49:54.256Z,100578.31
2019-02-07T04:54:21.424Z,100581.20
2019-02-07T04:58:37.225Z,100564.34
2019-02-07T05:02:52.452Z,100547.79
2019-02-07T05:07:12.203Z,100545.61
2019-02-07T05:11:32.897Z,100542.36
2019-02-07T05:16:07.343Z,100536.56
2019-02-07T05:20:24.563Z,100525.48
2019-02-07T05:24:39.199Z,100521.89
2019-02-07T05:29:02.718Z,100525.69
2019-02-07T05:33:26.142Z,100512.17
2019-02-07T05:37:49.720Z,100506.05
2019-02-07T05:42:13.832Z,100491.84
2019-02-07T05:46:38.159Z,100479.23
2019-02-07T05:51:11.501Z,100466.28
2019-02-07T05:55:35.276Z,100457.92
2019-02-07T05:59:54.530Z,100453.29
2019-02-07T06:04:19.126Z,100445.27
2019-02-07T06:08:52.535Z,100433.50
2019-02-07T06:13:15.667Z,100439.81
2019-02-07T06:17:40.420Z,100431.62
2019-02-07T06:21:56.574Z,100425.14
2019-02-07T06:26:11.070Z,100422.90
2019-02-07T06:30:35.664Z,100422.22
2019-02-07T06:35:00.324Z,100423.72
2019-02-07T06:39:28.962Z,100423.56
2019-02-07T06:44:03.065Z,100418.74
2019-02-07T06:48:30.403Z,100416.22
2019-02-07T06:52:53.672Z,100420.50
2019-02-07T06:57:17.535Z,100415.36
2019-02-07T07:01:57.218Z,100418.45
2019-02-07T07:06:36.001Z,100411.60
2019-02-07T07:10:57.680Z,100416.23
2019-02-07T07:15:20.760Z,100415.88
2019-02-07T07:19:50.952Z,100410.77
2019-02-07T07:24:27.858Z,100394.86
2019-02-07T07:28:52.123Z,100397.25
2019-02-07T07:33:06.491Z,100401.69
2019-02-07T07:37:29.776Z,100401.86
2019-02-07T07:41:53.131Z,100403.92
2019-02-07T07:46:17.389Z,100397.93
2019-02-07T07:50:40.825Z,100406.13
2019-02-07T07:55:06.546Z,100410.39
2019-02-07T07:59:23.069Z,100410.34
2019-02-07T08:03:44.210Z,100413.76
2019-02-07T08:08:17.623Z,100411.19
2019-02-07T08:12:40.914Z,100422.28
2019-02-07T08:17:04.201Z,100443.64
2019-02-07T08:21:27.747Z,100434.89
2019-02-07T08:25:51.016Z,100452.47
2019-02-07T08:30:36.273Z,100430.50
2019-02-07T08:34:56.628Z,100445.25
2019-02-07T08:39:19.816Z,100459.91
2019-02-07T08:43:39.857Z,100462.97
2019-02-07T08:48:16.426Z,100464.16
2019-02-07T08:52:35.445Z,100471.11
2019-02-07T08:56:59.865Z,100476.43
2019-02-07T09:01:23.611Z,100488.27
2019-02-07T09:05:51.022Z,100480.27
2019-02-07T09:10:19.856Z,100486.56
2019-02-07T09:14:44.948Z,100490.30
2019-02-07T09:18:59.233Z,100485.57
2019-02-07T09:23:16.169Z,100488.97
2019-02-07T09:27:43.307Z,100501.75
2019-02-07T09:32:13.747Z,100517.48
2019-02-07T09:36:44.029Z,100505.33
2019-02-07T09:41:07.332Z,100511.17
2019-02-07T09:45:49.506Z,100517.45
2019-02-07T09:50:25.920Z,100509.61
2019-02-07T09:55:05.606Z,100522.33
2019-02-07T09:59:29.953Z,100530.95
2019-02-07T10:03:47.956Z,100545.34
2019-02-07T10:08:01.527Z,100544.89
2019-02-07T10:12:22.804Z,100554.28
2019-02-07T10:16:56.309Z,100560.89
2019-02-07T10:21:29.675Z,100562.53
2019-02-07T10:25:52.711Z,100551.61
2019-02-07T10:30:16.196Z,100548.66
2019-02-07T10:34:43.738Z,100563.45
2019-02-07T10:39:03.899Z,100545.58
2019-02-07T10:43:27.248Z,100549.27
2019-02-07T10:47:57.629Z,100551.42
2019-02-07T10:52:21.139Z,100551.22
2019-02-07T10:56:52.821Z,100551.03
2019-02-07T11:01:17.101Z,100551.64
2019-02-07T11:05:33.311Z,100535.52
2019-02-07T11:10:06.627Z,100533.09
2019-02-07T11:14:30.949Z,100537.78
2019-02-07T11:18:57.992Z,100530.19
2019-02-07T11:23:19.455Z,100533.24
2019-02-07T11:27:49.978Z,100535.78
2019-02-07T11:32:13.447Z,100536.20
2019-02-07T11:36:36.381Z,100536.97
2019-02-07T11:40:59.463Z,100564.55
2019-02-07T11:45:24.293Z,100533.88
2019-02-07T11:49:46.308Z,100526.40
2019-02-07T11:54:09.700Z,100527.03
2019-02-07T11:58:32.863Z,100523.20
2019-02-07T12:02:57.585Z,100514.00
2019-02-07T12:07:18.494Z,100517.31
2019-02-07T12:11:43.248Z,100505.59
2019-02-07T12:15:59.148Z,100487.11
2019-02-07T12:20:18.230Z,100487.66
2019-02-07T12:24:42.079Z,100489.11
2019-02-07T12:29:06.488Z,100501.77
2019-02-07T12:33:30.819Z,100495.44
2019-02-07T12:37:54.254Z,100502.73
2019-02-07T12:42:23.223Z,100502.03
2019-02-07T12:46:50.683Z,100515.47
2019-02-07T12:51:13.718Z,100511.52
2019-02-07T12:55:37.105Z,100496.12
2019-02-07T13:00:11.152Z,100492.31
2019-02-07T13:04:29.186Z,100487.27
2019-02-07T13:08:45.075Z,100484.44
2019-02-07T13:13:09.991Z,100482.38
2019-02-07T13:17:37.442Z,100491.76
2019-02-07T13:21:53.621Z,100487.52
2019-02-07T13:26:05.075Z,100482.30
2019-02-07T13:30:31.725Z,100476.69
2019-02-07T13:34:47.320Z,100482.45
2019-02-07T13:39:17.754Z,100491.13
2019-02-07T13:43:42.362Z,100474.91
2019-02-07T13:48:05.297Z,100484.80
2019-02-07T13:52:42.074Z,100489.97
2019-02-07T13:57:09.271Z,100477.59
2019-02-07T14:01:30.072Z,100486.48
2019-02-07T14:06:00.470Z,100489.16
2019-02-07T14:10:27.083Z,100479.16
2019-02-07T14:15:00.785Z,100491.39
2019-02-07T14:19:37.650Z,100492.37
2019-02-07T14:23:53.392Z,100498.50
2019-02-07T14:28:16.614Z,100513.97
2019-02-07T14:32:33.706Z,100522.41
2019-02-07T14:36:54.261Z,100516.38
2019-02-07T14:41:30.802Z,100522.59
2019-02-07T14:45:54.883Z,100515.60
2019-02-07T14:50:00.315Z,100517.05
2019-02-07T14:54:05.954Z,100530.41
2019-02-07T14:58:11.511Z,100537.90
2019-02-07T15:02:17.200Z,100535.08
2019-02-07T15:06:22.657Z,100544.20
2019-02-07T15:10:28.076Z,100541.94
2019-02-07T15:14:33.523Z,100544.63
2019-02-07T15:18:39.548Z,100548.77
2019-02-07T15:22:44.998Z,100543.85
2019-02-07T15:26:50.917Z,100539.77
2019-02-07T15:30:56.318Z,100538.34
2019-02-07T15:35:01.749Z,100526.89
2019-02-07T15:39:11.591Z,100524.53
2019-02-07T15:43:18.157Z,100524.47
2019-02-07T15:47:23.621Z,100510.66
2019-02-07T15:51:29.487Z,100535.42
2019-02-07T15:55:34.985Z,100539.00
2019-02-07T15:59:59.495Z,100577.47
2019-02-07T16:04:12.550Z,100598.81
2019-02-07T16:08:18.261Z,100577.53
2019-02-07T16:12:23.988Z,100572.59
2019-02-07T16:16:29.426Z,100559.67
2019-02-07T16:20:35.123Z,100554.83
2019-02-07T16:24:40.526Z,100553.25
2019-02-07T16:28:45.930Z,100558.03
2019-02-07T16:32:51.356Z,100564.02
2019-02-07T16:36:57.142Z,100557.88
2019-02-07T16:41:02.877Z,100564.31
2019-02-07T16:45:12.392Z,100559.37
2019-02-07T16:49:18.563Z,100567.16
2019-02-07T16:53:24.055Z,100567.80
2019-02-07T16:57:29.738Z,100580.25
2019-02-07T17:01:35.249Z,100577.31
2019-02-07T17:05:41.023Z,100584.28
2019-02-07T17:09:46.491Z,100590.52
2019-02-07T17:13:51.902Z,100597.95
2019-02-07T17:17:57.354Z,100603.41
2019-02-07T17:22:03.026Z,100617.48
2019-02-07T17:26:08.589Z,100622.98
2019-02-07T17:30:16.417Z,100630.81
2019-02-07T17:34:21.839Z,100628.06
2019-02-07T17:38:27.606Z,100635.56
2019-02-07T17:42:33.335Z,100636.45
2019-02-07T17:46:38.837Z,100649.72
2019-02-07T17:50:44.516Z,100653.57
2019-02-07T17:54:50.324Z,100664.77
2019-02-07T17:58:55.733Z,100659.75
2019-02-07T18:03:01.224Z,100660.18
2019-02-07T18:07:06.792Z,100674.64
2019-02-07T18:11:12.315Z,100673.58
2019-02-07T18:15:17.777Z,100675.92
2019-02-07T18:19:23.775Z,100673.12
2019-02-07T18:23:29.200Z,100689.81
2019-02-07T18:27:34.649Z,100690.60
2019-02-07T18:31:40.144Z,100694.73
2019-02-07T18:35:45.579Z,100697.56
2019-02-07T18:39:51.000Z,100705.52
2019-02-07T18:43:56.480Z,100709.98
2019-02-07T18:48:01.835Z,100713.55
2019-02-07T18:52:07.311Z,100717.61
2019-02-07T18:56:13.110Z,100727.17
2019-02-07T19:00:22.700Z,100726.14
2019-02-07T19:04:28.229Z,100728.41
2019-02-07T19:08:33.669Z,100729.81
2019-02-07T19:12:39.243Z,100729.41
2019-02-07T19:16:44.685Z,100738.13
2019-02-07T19:20:50.089Z,100746.04
2019-02-07T19:24:57.869Z,100756.13
2019-02-07T19:29:03.365Z,100747.38
2019-02-07T19:33:08.820Z,100750.01
2019-02-07T19:37:14.223Z,100754.94
2019-02-07T19:41:19.800Z,100760.80
2019-02-07T19:45:25.283Z,100755.81
2019-02-07T19:49:30.729Z,100766.83
2019-02-07T19:53:36.106Z,100776.52
2019-02-07T19:57:41.653Z,100772.31
2019-02-07T20:01:47.519Z,100773.86
2019-02-07T20:05:53.355Z,100774.02
2019-02-07T20:09:58.833Z,100776.73
2019-02-07T20:14:04.186Z,100775.56
2019-02-07T20:18:11.633Z,100788.07
2019-02-07T20:22:20.356Z,100789.94
2019-02-07T20:26:24.563Z,100801.94
2019-02-07T20:30:39.137Z,100805.86
2019-02-07T20:34:44.491Z,100803.14
2019-02-07T20:38:52.124Z,100822.33
2019-02-07T20:42:57.943Z,100834.80
2019-02-07T20:47:03.303Z,100819.92
2019-02-07T20:51:08.912Z,100821.30
2019-02-07T20:55:15.139Z,100829.50
2019-02-07T20:59:20.680Z,100834.64
2019-02-07T21:03:26.214Z,100836.50
2019-02-07T21:07:31.633Z,100831.71
2019-02-07T21:11:37.454Z,100846.45
2019-02-07T21:15:42.826Z,100837.23
2019-02-07T21:19:48.841Z,100843.37
2019-02-07T21:23:54.475Z,100843.03
2019-02-07T21:28:00.309Z,100843.89
2019-02-07T21:32:06.397Z,100852.66
2019-02-07T21:36:11.823Z,100861.22
2019-02-07T21:40:21.248Z,100865.31
2019-02-07T21:44:26.691Z,100875.94
2019-02-07T21:48:32.135Z,100877.98
2019-02-07T21:52:41.907Z,100884.51
2019-02-07T21:56:44.706Z,100884.51
2019-02-07T22:00:50.315Z,100898.56
2019-02-07T22:04:55.702Z,100899.92
2019-02-07T22:09:01.919Z,100908.84
2019-02-07T22:13:08.456Z,100900.97
2019-02-07T22:17:13.802Z,100912.45
2019-02-07T22:21:19.595Z,100913.14
2019-02-07T22:25:25.702Z,100912.30
2019-02-07T22:29:31.128Z,100917.25
2019-02-07T22:33:36.540Z,100923.92
2019-02-07T22:37:41.975Z,100924.63
2019-02-07T22:41:47.405Z,100924.96
2019-02-07T22:45:53.210Z,100931.98
2019-02-07T22:49:58.671Z,100938.67
2019-02-07T22:54:04.491Z,100937.12
2019-02-07T22:58:10.511Z,100933.20
2019-02-07T23:02:16.242Z,100941.25
2019-02-07T23:06:21.742Z,100952.03
2019-02-07T23:10:27.178Z,100937.98
2019-02-07T23:14:32.604Z,100945.84
2019-02-07T23:18:39.161Z,100941.38
2019-02-07T23:22:44.963Z,100947.02
2019-02-07T23:26:51.169Z,100942.42
2019-02-07T23:30:56.603Z,100950.34
2019-02-07T23:35:02.045Z,100953.08
2019-02-07T23:39:11.569Z,100946.36
2019-02-07T23:43:16.975Z,100954.75
2019-02-07T23:47:22.545Z,100949.42
2019-02-07T23:51:28.354Z,100951.30
2019-02-07T23:55:33.813Z,100951.48
2019-02-07T23:59:39.151Z,100950.27
